sensor_id;sensor_type;location;lat;lon;timestamp;temperature;humidity
10660;DHT22;5378;53.206;13.316;2023-09-19T00:00:24;18.30;99.90
10660;DHT22;5378;53.206;13.316;2023-09-19T00:03:14;18.30;99.90
10660;DHT22;5378;53.206;13.316;2023-09-19T00:06:02;18.30;99.90
10660;DHT22;5378;53.206;13.316;2023-09-19T00:08:48;18.30;99.90
10660;DHT22;5378;53.206;13.316;2023-09-19T00:11:35;18.30;99.90
10660;DHT22;5378;53.206;13.316;2023-09-19T00:14:25;18.30;99.90
10660;DHT22;5378;53.206;13.316;2023-09-19T00:17:12;18.30;99.90
10660;DHT22;5378;53.206;13.316;2023-09-19T00:20:00;18.30;99.90
10660;DHT22;5378;53.206;13.316;2023-09-19T00:22:59;18.30;99.90
10660;DHT22;5378;53.206;13.316;2023-09-19T00:25:54;18.30;99.90
10660;DHT22;5378;53.206;13.316;2023-09-19T00:28:45;18.20;99.90
10660;DHT22;5378;53.206;13.316;2023-09-19T00:31:32;18.20;99.90
10660;DHT22;5378;53.206;13.316;2023-09-19T00:34:19;18.20;99.90
10660;DHT22;5378;53.206;13.316;2023-09-19T00:37:07;18.10;99.90
10660;DHT22;5378;53.206;13.316;2023-09-19T00:39:57;18.10;99.90
10660;DHT22;5378;53.206;13.316;2023-09-19T00:42:45;18.10;99.90
10660;DHT22;5378;53.206;13.316;2023-09-19T00:45:32;18.10;99.90
10660;DHT22;5378;53.206;13.316;2023-09-19T00:48:22;18.10;99.90
10660;DHT22;5378;53.206;13.316;2023-09-19T00:51:10;18.00;99.90
10660;DHT22;5378;53.206;13.316;2023-09-19T00:54:02;18.00;99.90
10660;DHT22;5378;53.206;13.316;2023-09-19T00:56:50;17.90;99.90
10660;DHT22;5378;53.206;13.316;2023-09-19T00:59:40;17.90;99.90
10660;DHT22;5378;53.206;13.316;2023-09-19T01:02:28;17.80;99.90
10660;DHT22;5378;53.206;13.316;2023-09-19T01:05:16;17.80;99.90
10660;DHT22;5378;53.206;13.316;2023-09-19T01:08:04;17.90;99.90
10660;DHT22;5378;53.206;13.316;2023-09-19T01:10:58;17.80;99.90
10660;DHT22;5378;53.206;13.316;2023-09-19T01:13:55;17.70;99.90
10660;DHT22;5378;53.206;13.316;2023-09-19T01:16:50;17.90;99.90
10660;DHT22;5378;53.206;13.316;2023-09-19T01:20:02;17.80;99.90
10660;DHT22;5378;53.206;13.316;2023-09-19T01:23:00;17.70;99.90
10660;DHT22;5378;53.206;13.316;2023-09-19T01:26:14;17.80;99.90
10660;DHT22;5378;53.206;13.316;2023-09-19T01:29:19;17.70;99.90
10660;DHT22;5378;53.206;13.316;2023-09-19T01:32:18;17.60;99.90
10660;DHT22;5378;53.206;13.316;2023-09-19T01:35:07;17.60;99.90
10660;DHT22;5378;53.206;13.316;2023-09-19T01:37:58;17.70;99.90
10660;DHT22;5378;53.206;13.316;2023-09-19T01:40:53;17.70;99.90
10660;DHT22;5378;53.206;13.316;2023-09-19T01:43:46;17.70;99.90
10660;DHT22;5378;53.206;13.316;2023-09-19T01:46:40;17.60;99.90
10660;DHT22;5378;53.206;13.316;2023-09-19T01:49:35;17.60;99.90
10660;DHT22;5378;53.206;13.316;2023-09-19T01:52:28;17.60;99.90
10660;DHT22;5378;53.206;13.316;2023-09-19T01:55:18;17.60;99.90
10660;DHT22;5378;53.206;13.316;2023-09-19T01:58:08;17.60;99.90
10660;DHT22;5378;53.206;13.316;2023-09-19T02:01:01;17.60;99.90
10660;DHT22;5378;53.206;13.316;2023-09-19T02:03:50;17.60;99.90
10660;DHT22;5378;53.206;13.316;2023-09-19T02:06:41;17.50;99.90
10660;DHT22;5378;53.206;13.316;2023-09-19T02:09:28;17.50;99.90
10660;DHT22;5378;53.206;13.316;2023-09-19T02:12:15;17.50;99.90
10660;DHT22;5378;53.206;13.316;2023-09-19T02:15:02;17.50;99.90
10660;DHT22;5378;53.206;13.316;2023-09-19T02:17:53;17.40;99.90
10660;DHT22;5378;53.206;13.316;2023-09-19T02:20:43;17.40;99.90
10660;DHT22;5378;53.206;13.316;2023-09-19T02:23:31;17.40;99.90
10660;DHT22;5378;53.206;13.316;2023-09-19T02:26:19;17.30;99.90
10660;DHT22;5378;53.206;13.316;2023-09-19T02:29:06;17.30;99.90
10660;DHT22;5378;53.206;13.316;2023-09-19T02:31:54;17.30;99.90
10660;DHT22;5378;53.206;13.316;2023-09-19T02:34:42;17.30;99.90
10660;DHT22;5378;53.206;13.316;2023-09-19T02:37:31;17.40;99.90
10660;DHT22;5378;53.206;13.316;2023-09-19T02:40:20;17.50;99.90
10660;DHT22;5378;53.206;13.316;2023-09-19T02:43:07;17.60;99.90
10660;DHT22;5378;53.206;13.316;2023-09-19T02:45:55;17.60;99.90
10660;DHT22;5378;53.206;13.316;2023-09-19T02:48:42;17.70;99.90
10660;DHT22;5378;53.206;13.316;2023-09-19T02:51:29;17.60;99.90
10660;DHT22;5378;53.206;13.316;2023-09-19T02:54:16;17.50;99.90
10660;DHT22;5378;53.206;13.316;2023-09-19T02:57:05;17.40;99.90
10660;DHT22;5378;53.206;13.316;2023-09-19T02:59:53;17.50;99.90
10660;DHT22;5378;53.206;13.316;2023-09-19T03:02:40;17.50;99.90
10660;DHT22;5378;53.206;13.316;2023-09-19T03:05:28;17.60;99.90
10660;DHT22;5378;53.206;13.316;2023-09-19T03:08:16;17.60;99.90
10660;DHT22;5378;53.206;13.316;2023-09-19T03:11:06;17.70;99.90
10660;DHT22;5378;53.206;13.316;2023-09-19T03:13:59;17.70;99.90
10660;DHT22;5378;53.206;13.316;2023-09-19T03:16:46;17.60;99.90
10660;DHT22;5378;53.206;13.316;2023-09-19T03:19:34;17.50;99.90
10660;DHT22;5378;53.206;13.316;2023-09-19T03:22:23;17.40;99.90
10660;DHT22;5378;53.206;13.316;2023-09-19T03:25:11;17.30;99.90
10660;DHT22;5378;53.206;13.316;2023-09-19T03:28:03;17.20;99.90
10660;DHT22;5378;53.206;13.316;2023-09-19T03:31:03;17.20;99.90
10660;DHT22;5378;53.206;13.316;2023-09-19T03:33:52;17.10;99.90
10660;DHT22;5378;53.206;13.316;2023-09-19T03:36:40;17.00;99.90
10660;DHT22;5378;53.206;13.316;2023-09-19T03:39:27;16.90;99.90
10660;DHT22;5378;53.206;13.316;2023-09-19T03:42:14;16.90;99.90
10660;DHT22;5378;53.206;13.316;2023-09-19T03:45:01;16.90;99.90
10660;DHT22;5378;53.206;13.316;2023-09-19T03:47:51;16.40;99.90
10660;DHT22;5378;53.206;13.316;2023-09-19T03:50:40;17.00;99.90
10660;DHT22;5378;53.206;13.316;2023-09-19T03:53:29;17.10;99.90
10660;DHT22;5378;53.206;13.316;2023-09-19T03:56:17;17.20;99.90
10660;DHT22;5378;53.206;13.316;2023-09-19T03:59:04;17.30;99.90
10660;DHT22;5378;53.206;13.316;2023-09-19T04:01:51;17.20;99.90
10660;DHT22;5378;53.206;13.316;2023-09-19T04:04:43;17.20;99.90
10660;DHT22;5378;53.206;13.316;2023-09-19T04:07:30;17.20;99.90
10660;DHT22;5378;53.206;13.316;2023-09-19T04:10:17;17.10;99.90
10660;DHT22;5378;53.206;13.316;2023-09-19T04:13:04;17.10;99.90
10660;DHT22;5378;53.206;13.316;2023-09-19T04:15:50;17.00;99.90
10660;DHT22;5378;53.206;13.316;2023-09-19T04:18:37;17.10;99.90
10660;DHT22;5378;53.206;13.316;2023-09-19T04:21:27;17.10;99.90
10660;DHT22;5378;53.206;13.316;2023-09-19T04:24:15;17.20;99.90
10660;DHT22;5378;53.206;13.316;2023-09-19T04:27:02;17.40;99.90
10660;DHT22;5378;53.206;13.316;2023-09-19T04:29:49;16.40;99.90
10660;DHT22;5378;53.206;13.316;2023-09-19T04:32:37;17.60;99.90
10660;DHT22;5378;53.206;13.316;2023-09-19T04:35:25;17.60;99.90
10660;DHT22;5378;53.206;13.316;2023-09-19T04:38:14;17.60;99.90
10660;DHT22;5378;53.206;13.316;2023-09-19T04:41:01;17.40;99.90
10660;DHT22;5378;53.206;13.316;2023-09-19T04:43:48;17.30;99.90
10660;DHT22;5378;53.206;13.316;2023-09-19T04:46:36;17.20;99.90
10660;DHT22;5378;53.206;13.316;2023-09-19T04:49:23;17.30;99.90
10660;DHT22;5378;53.206;13.316;2023-09-19T04:52:10;17.40;99.90
10660;DHT22;5378;53.206;13.316;2023-09-19T04:54:59;17.40;99.90
10660;DHT22;5378;53.206;13.316;2023-09-19T04:57:46;17.50;99.90
10660;DHT22;5378;53.206;13.316;2023-09-19T05:00:33;17.50;99.90
10660;DHT22;5378;53.206;13.316;2023-09-19T05:03:20;17.60;99.90
10660;DHT22;5378;53.206;13.316;2023-09-19T05:06:08;17.70;99.90
10660;DHT22;5378;53.206;13.316;2023-09-19T05:08:55;17.60;99.90
10660;DHT22;5378;53.206;13.316;2023-09-19T05:11:43;17.40;99.90
10660;DHT22;5378;53.206;13.316;2023-09-19T05:14:30;17.20;99.90
10660;DHT22;5378;53.206;13.316;2023-09-19T05:17:17;17.20;99.90
10660;DHT22;5378;53.206;13.316;2023-09-19T05:20:06;17.20;99.90
10660;DHT22;5378;53.206;13.316;2023-09-19T05:23:10;17.20;99.90
10660;DHT22;5378;53.206;13.316;2023-09-19T05:25:58;17.40;99.90
10660;DHT22;5378;53.206;13.316;2023-09-19T05:28:47;17.40;99.90
10660;DHT22;5378;53.206;13.316;2023-09-19T05:31:34;17.50;99.90
10660;DHT22;5378;53.206;13.316;2023-09-19T05:34:22;17.60;99.90
10660;DHT22;5378;53.206;13.316;2023-09-19T05:37:11;17.70;99.90
10660;DHT22;5378;53.206;13.316;2023-09-19T05:39:58;17.70;99.90
10660;DHT22;5378;53.206;13.316;2023-09-19T05:42:44;17.70;99.90
10660;DHT22;5378;53.206;13.316;2023-09-19T05:45:33;17.70;99.90
10660;DHT22;5378;53.206;13.316;2023-09-19T05:48:20;17.70;99.90
10660;DHT22;5378;53.206;13.316;2023-09-19T05:51:11;17.70;99.90
10660;DHT22;5378;53.206;13.316;2023-09-19T05:53:58;17.70;99.90
10660;DHT22;5378;53.206;13.316;2023-09-19T05:56:45;17.80;99.90
10660;DHT22;5378;53.206;13.316;2023-09-19T05:59:33;17.80;99.90
10660;DHT22;5378;53.206;13.316;2023-09-19T06:02:21;17.80;99.90
10660;DHT22;5378;53.206;13.316;2023-09-19T06:05:08;17.80;99.90
10660;DHT22;5378;53.206;13.316;2023-09-19T06:07:56;17.90;99.90
10660;DHT22;5378;53.206;13.316;2023-09-19T06:10:46;17.90;99.90
10660;DHT22;5378;53.206;13.316;2023-09-19T06:13:34;17.90;99.90
10660;DHT22;5378;53.206;13.316;2023-09-19T06:16:21;17.90;99.90
10660;DHT22;5378;53.206;13.316;2023-09-19T06:19:11;18.00;99.90
10660;DHT22;5378;53.206;13.316;2023-09-19T06:21:58;18.20;99.90
10660;DHT22;5378;53.206;13.316;2023-09-19T06:24:46;18.40;99.90
10660;DHT22;5378;53.206;13.316;2023-09-19T06:27:33;18.60;99.90
10660;DHT22;5378;53.206;13.316;2023-09-19T06:30:22;18.80;99.90
10660;DHT22;5378;53.206;13.316;2023-09-19T06:33:10;18.90;99.90
10660;DHT22;5378;53.206;13.316;2023-09-19T06:36:00;19.00;99.90
10660;DHT22;5378;53.206;13.316;2023-09-19T06:38:50;19.30;99.90
10660;DHT22;5378;53.206;13.316;2023-09-19T06:41:38;19.70;99.90
10660;DHT22;5378;53.206;13.316;2023-09-19T06:44:29;19.90;99.90
10660;DHT22;5378;53.206;13.316;2023-09-19T06:47:17;19.90;99.90
10660;DHT22;5378;53.206;13.316;2023-09-19T06:50:05;19.90;99.90
10660;DHT22;5378;53.206;13.316;2023-09-19T06:53:00;19.70;99.90
10660;DHT22;5378;53.206;13.316;2023-09-19T06:55:48;19.90;99.90
10660;DHT22;5378;53.206;13.316;2023-09-19T06:58:35;19.90;99.90
10660;DHT22;5378;53.206;13.316;2023-09-19T07:01:22;19.80;99.90
10660;DHT22;5378;53.206;13.316;2023-09-19T07:04:09;19.60;99.90
10660;DHT22;5378;53.206;13.316;2023-09-19T07:06:56;19.50;99.90
10660;DHT22;5378;53.206;13.316;2023-09-19T07:09:45;19.30;99.90
10660;DHT22;5378;53.206;13.316;2023-09-19T07:12:37;19.20;99.90
10660;DHT22;5378;53.206;13.316;2023-09-19T07:15:27;19.00;99.90
10660;DHT22;5378;53.206;13.316;2023-09-19T07:18:15;18.90;99.90
10660;DHT22;5378;53.206;13.316;2023-09-19T07:21:03;18.90;99.90
10660;DHT22;5378;53.206;13.316;2023-09-19T07:23:52;18.70;99.90
10660;DHT22;5378;53.206;13.316;2023-09-19T07:26:40;18.70;99.90
10660;DHT22;5378;53.206;13.316;2023-09-19T07:29:28;18.70;99.90
10660;DHT22;5378;53.206;13.316;2023-09-19T07:32:15;18.70;99.90
10660;DHT22;5378;53.206;13.316;2023-09-19T07:35:03;18.80;99.90
10660;DHT22;5378;53.206;13.316;2023-09-19T07:37:51;18.80;99.90
10660;DHT22;5378;53.206;13.316;2023-09-19T07:40:38;18.80;99.90
10660;DHT22;5378;53.206;13.316;2023-09-19T07:43:26;18.80;99.90
10660;DHT22;5378;53.206;13.316;2023-09-19T07:46:16;19.00;99.90
10660;DHT22;5378;53.206;13.316;2023-09-19T07:49:03;19.40;99.90
10660;DHT22;5378;53.206;13.316;2023-09-19T07:51:50;19.90;99.90
10660;DHT22;5378;53.206;13.316;2023-09-19T07:54:39;20.20;99.90
10660;DHT22;5378;53.206;13.316;2023-09-19T07:57:27;20.50;99.90
10660;DHT22;5378;53.206;13.316;2023-09-19T08:00:16;20.50;99.90
10660;DHT22;5378;53.206;13.316;2023-09-19T08:03:04;20.50;99.90
10660;DHT22;5378;53.206;13.316;2023-09-19T08:05:58;20.40;99.90
10660;DHT22;5378;53.206;13.316;2023-09-19T08:08:45;20.50;99.90
10660;DHT22;5378;53.206;13.316;2023-09-19T08:11:32;20.40;99.90
10660;DHT22;5378;53.206;13.316;2023-09-19T08:14:19;20.80;99.90
10660;DHT22;5378;53.206;13.316;2023-09-19T08:17:10;21.10;99.90
10660;DHT22;5378;53.206;13.316;2023-09-19T08:19:58;22.10;99.90
10660;DHT22;5378;53.206;13.316;2023-09-19T08:22:47;22.70;99.90
10660;DHT22;5378;53.206;13.316;2023-09-19T08:25:37;23.00;99.90
10660;DHT22;5378;53.206;13.316;2023-09-19T08:28:25;24.00;99.90
10660;DHT22;5378;53.206;13.316;2023-09-19T08:31:15;25.20;99.90
10660;DHT22;5378;53.206;13.316;2023-09-19T08:34:04;25.90;99.90
10660;DHT22;5378;53.206;13.316;2023-09-19T08:36:51;25.40;99.90
10660;DHT22;5378;53.206;13.316;2023-09-19T08:39:42;25.40;99.90
10660;DHT22;5378;53.206;13.316;2023-09-19T08:42:29;26.20;99.90
10660;DHT22;5378;53.206;13.316;2023-09-19T08:45:20;27.00;99.90
10660;DHT22;5378;53.206;13.316;2023-09-19T08:48:21;27.60;99.90
10660;DHT22;5378;53.206;13.316;2023-09-19T08:51:21;28.30;99.90
10660;DHT22;5378;53.206;13.316;2023-09-19T08:54:21;28.70;99.50
10660;DHT22;5378;53.206;13.316;2023-09-19T08:57:09;27.30;99.20
10660;DHT22;5378;53.206;13.316;2023-09-19T08:59:57;25.90;99.90
10660;DHT22;5378;53.206;13.316;2023-09-19T09:02:47;26.10;99.90
10660;DHT22;5378;53.206;13.316;2023-09-19T09:05:36;26.10;99.90
10660;DHT22;5378;53.206;13.316;2023-09-19T09:08:33;25.30;99.90
10660;DHT22;5378;53.206;13.316;2023-09-19T09:11:20;24.10;99.90
10660;DHT22;5378;53.206;13.316;2023-09-19T09:14:09;23.20;99.90
10660;DHT22;5378;53.206;13.316;2023-09-19T09:16:56;23.00;99.90
10660;DHT22;5378;53.206;13.316;2023-09-19T09:19:45;23.00;99.90
10660;DHT22;5378;53.206;13.316;2023-09-19T09:22:36;23.00;99.90
10660;DHT22;5378;53.206;13.316;2023-09-19T09:25:48;23.40;99.90
10660;DHT22;5378;53.206;13.316;2023-09-19T09:28:44;23.20;99.90
10660;DHT22;5378;53.206;13.316;2023-09-19T09:31:32;23.20;99.90
10660;DHT22;5378;53.206;13.316;2023-09-19T09:34:19;22.90;99.90
10660;DHT22;5378;53.206;13.316;2023-09-19T09:37:07;22.70;99.90
10660;DHT22;5378;53.206;13.316;2023-09-19T09:40:02;22.10;99.90
10660;DHT22;5378;53.206;13.316;2023-09-19T09:43:25;21.70;99.90
10660;DHT22;5378;53.206;13.316;2023-09-19T09:46:14;21.30;99.90
10660;DHT22;5378;53.206;13.316;2023-09-19T09:49:27;20.90;99.90
10660;DHT22;5378;53.206;13.316;2023-09-19T09:52:20;20.80;99.90
10660;DHT22;5378;53.206;13.316;2023-09-19T09:55:10;20.80;99.90
10660;DHT22;5378;53.206;13.316;2023-09-19T09:58:19;20.90;99.90
10660;DHT22;5378;53.206;13.316;2023-09-19T10:01:09;20.90;99.90
10660;DHT22;5378;53.206;13.316;2023-09-19T10:04:02;20.90;99.90
10660;DHT22;5378;53.206;13.316;2023-09-19T10:06:49;20.90;99.90
10660;DHT22;5378;53.206;13.316;2023-09-19T10:09:45;20.90;99.90
10660;DHT22;5378;53.206;13.316;2023-09-19T10:12:33;21.10;99.90
10660;DHT22;5378;53.206;13.316;2023-09-19T10:15:24;21.20;99.90
10660;DHT22;5378;53.206;13.316;2023-09-19T10:18:20;21.10;99.90
10660;DHT22;5378;53.206;13.316;2023-09-19T10:21:08;20.90;99.90
10660;DHT22;5378;53.206;13.316;2023-09-19T10:23:58;20.70;99.90
10660;DHT22;5378;53.206;13.316;2023-09-19T10:26:46;20.70;99.90
10660;DHT22;5378;53.206;13.316;2023-09-19T10:29:39;20.90;99.90
10660;DHT22;5378;53.206;13.316;2023-09-19T10:32:28;21.10;99.90
10660;DHT22;5378;53.206;13.316;2023-09-19T10:35:20;21.40;99.90
10660;DHT22;5378;53.206;13.316;2023-09-19T10:38:10;21.70;99.90
10660;DHT22;5378;53.206;13.316;2023-09-19T10:40:58;21.70;99.90
10660;DHT22;5378;53.206;13.316;2023-09-19T10:43:48;21.80;99.90
10660;DHT22;5378;53.206;13.316;2023-09-19T10:46:37;21.70;99.90
10660;DHT22;5378;53.206;13.316;2023-09-19T10:49:25;21.40;99.90
10660;DHT22;5378;53.206;13.316;2023-09-19T10:52:15;21.20;99.90
10660;DHT22;5378;53.206;13.316;2023-09-19T10:55:06;20.80;99.90
10660;DHT22;5378;53.206;13.316;2023-09-19T10:57:55;20.70;99.90
10660;DHT22;5378;53.206;13.316;2023-09-19T11:00:57;20.60;99.90
10660;DHT22;5378;53.206;13.316;2023-09-19T11:04:22;20.60;99.90
10660;DHT22;5378;53.206;13.316;2023-09-19T11:07:12;20.40;99.90
10660;DHT22;5378;53.206;13.316;2023-09-19T11:10:01;20.20;99.90
10660;DHT22;5378;53.206;13.316;2023-09-19T11:12:50;20.10;99.90
10660;DHT22;5378;53.206;13.316;2023-09-19T11:16:04;20.10;99.90
10660;DHT22;5378;53.206;13.316;2023-09-19T11:18:52;20.20;99.90
10660;DHT22;5378;53.206;13.316;2023-09-19T11:21:52;20.20;99.90
10660;DHT22;5378;53.206;13.316;2023-09-19T11:24:41;20.30;99.90
10660;DHT22;5378;53.206;13.316;2023-09-19T11:27:29;20.50;99.90
10660;DHT22;5378;53.206;13.316;2023-09-19T11:30:28;20.80;99.90
10660;DHT22;5378;53.206;13.316;2023-09-19T11:33:17;21.10;99.90
10660;DHT22;5378;53.206;13.316;2023-09-19T11:36:08;21.10;99.90
10660;DHT22;5378;53.206;13.316;2023-09-19T11:39:00;21.20;99.90
10660;DHT22;5378;53.206;13.316;2023-09-19T11:42:00;21.20;99.90
10660;DHT22;5378;53.206;13.316;2023-09-19T11:44:48;21.40;99.90
10660;DHT22;5378;53.206;13.316;2023-09-19T11:47:38;21.40;99.90
10660;DHT22;5378;53.206;13.316;2023-09-19T11:50:26;21.50;99.90
10660;DHT22;5378;53.206;13.316;2023-09-19T11:53:14;21.50;99.90
10660;DHT22;5378;53.206;13.316;2023-09-19T11:56:07;21.50;99.90
10660;DHT22;5378;53.206;13.316;2023-09-19T11:58:57;21.50;99.90
10660;DHT22;5378;53.206;13.316;2023-09-19T12:01:51;21.70;99.90
10660;DHT22;5378;53.206;13.316;2023-09-19T12:04:46;21.90;99.90
10660;DHT22;5378;53.206;13.316;2023-09-19T12:07:43;22.00;99.90
10660;DHT22;5378;53.206;13.316;2023-09-19T12:10:33;22.00;99.90
10660;DHT22;5378;53.206;13.316;2023-09-19T12:13:22;22.10;99.90
10660;DHT22;5378;53.206;13.316;2023-09-19T12:16:13;22.20;99.90
10660;DHT22;5378;53.206;13.316;2023-09-19T12:19:20;22.20;99.90
10660;DHT22;5378;53.206;13.316;2023-09-19T12:22:07;22.00;99.90
10660;DHT22;5378;53.206;13.316;2023-09-19T12:25:05;21.90;99.90
10660;DHT22;5378;53.206;13.316;2023-09-19T12:27:53;21.90;99.90
10660;DHT22;5378;53.206;13.316;2023-09-19T12:30:42;21.70;99.90
10660;DHT22;5378;53.206;13.316;2023-09-19T12:33:30;21.50;99.90
10660;DHT22;5378;53.206;13.316;2023-09-19T12:36:21;21.50;99.90
10660;DHT22;5378;53.206;13.316;2023-09-19T12:39:32;21.50;99.90
10660;DHT22;5378;53.206;13.316;2023-09-19T12:42:23;21.30;99.90
10660;DHT22;5378;53.206;13.316;2023-09-19T12:45:14;21.40;99.90
10660;DHT22;5378;53.206;13.316;2023-09-19T12:48:21;21.30;99.90
10660;DHT22;5378;53.206;13.316;2023-09-19T12:51:09;21.40;99.90
10660;DHT22;5378;53.206;13.316;2023-09-19T12:53:58;21.20;99.90
10660;DHT22;5378;53.206;13.316;2023-09-19T12:56:46;21.20;99.90
10660;DHT22;5378;53.206;13.316;2023-09-19T12:59:34;21.20;99.90
10660;DHT22;5378;53.206;13.316;2023-09-19T13:02:25;21.20;99.90
10660;DHT22;5378;53.206;13.316;2023-09-19T13:05:15;21.30;99.90
10660;DHT22;5378;53.206;13.316;2023-09-19T13:08:17;21.40;99.90
10660;DHT22;5378;53.206;13.316;2023-09-19T13:11:08;21.50;99.90
10660;DHT22;5378;53.206;13.316;2023-09-19T13:14:15;21.40;99.90
10660;DHT22;5378;53.206;13.316;2023-09-19T13:17:03;21.40;99.90
10660;DHT22;5378;53.206;13.316;2023-09-19T13:19:52;21.50;99.90
10660;DHT22;5378;53.206;13.316;2023-09-19T13:22:43;21.60;99.90
10660;DHT22;5378;53.206;13.316;2023-09-19T13:25:35;21.80;99.90
10660;DHT22;5378;53.206;13.316;2023-09-19T13:28:22;21.60;99.90
10660;DHT22;5378;53.206;13.316;2023-09-19T13:31:09;21.70;99.90
10660;DHT22;5378;53.206;13.316;2023-09-19T13:33:57;21.80;99.90
10660;DHT22;5378;53.206;13.316;2023-09-19T13:36:45;21.80;99.90
10660;DHT22;5378;53.206;13.316;2023-09-19T13:39:35;21.70;99.90
10660;DHT22;5378;53.206;13.316;2023-09-19T13:42:24;21.70;99.90
10660;DHT22;5378;53.206;13.316;2023-09-19T13:45:15;21.40;99.90
10660;DHT22;5378;53.206;13.316;2023-09-19T13:48:04;21.40;99.90
10660;DHT22;5378;53.206;13.316;2023-09-19T13:50:51;21.30;99.90
10660;DHT22;5378;53.206;13.316;2023-09-19T13:53:38;21.20;99.90
10660;DHT22;5378;53.206;13.316;2023-09-19T13:56:26;21.10;99.90
10660;DHT22;5378;53.206;13.316;2023-09-19T13:59:15;21.00;99.90
10660;DHT22;5378;53.206;13.316;2023-09-19T14:02:03;21.00;99.90
10660;DHT22;5378;53.206;13.316;2023-09-19T14:04:53;21.00;99.90
10660;DHT22;5378;53.206;13.316;2023-09-19T14:07:40;20.90;99.90
10660;DHT22;5378;53.206;13.316;2023-09-19T14:10:28;20.90;99.90
10660;DHT22;5378;53.206;13.316;2023-09-19T14:13:18;20.90;99.90
10660;DHT22;5378;53.206;13.316;2023-09-19T14:16:06;20.90;99.90
10660;DHT22;5378;53.206;13.316;2023-09-19T14:18:54;20.90;99.90
10660;DHT22;5378;53.206;13.316;2023-09-19T14:21:41;20.90;99.90
10660;DHT22;5378;53.206;13.316;2023-09-19T14:24:29;21.00;99.90
10660;DHT22;5378;53.206;13.316;2023-09-19T14:27:16;20.90;99.90
10660;DHT22;5378;53.206;13.316;2023-09-19T14:30:06;20.90;99.90
10660;DHT22;5378;53.206;13.316;2023-09-19T14:32:53;20.80;99.90
10660;DHT22;5378;53.206;13.316;2023-09-19T14:35:40;20.80;99.90
10660;DHT22;5378;53.206;13.316;2023-09-19T14:38:27;20.90;99.90
10660;DHT22;5378;53.206;13.316;2023-09-19T14:41:15;20.80;99.90
10660;DHT22;5378;53.206;13.316;2023-09-19T14:44:03;20.70;99.90
10660;DHT22;5378;53.206;13.316;2023-09-19T14:46:52;20.70;99.90
10660;DHT22;5378;53.206;13.316;2023-09-19T14:49:39;20.70;99.90
10660;DHT22;5378;53.206;13.316;2023-09-19T14:52:26;20.80;99.90
10660;DHT22;5378;53.206;13.316;2023-09-19T14:55:14;20.70;99.90
10660;DHT22;5378;53.206;13.316;2023-09-19T14:58:01;20.60;99.90
10660;DHT22;5378;53.206;13.316;2023-09-19T15:00:48;20.50;99.90
10660;DHT22;5378;53.206;13.316;2023-09-19T15:03:40;20.20;99.90
10660;DHT22;5378;53.206;13.316;2023-09-19T15:06:28;20.10;99.90
10660;DHT22;5378;53.206;13.316;2023-09-19T15:09:15;20.00;99.90
10660;DHT22;5378;53.206;13.316;2023-09-19T15:12:05;20.10;99.90
10660;DHT22;5378;53.206;13.316;2023-09-19T15:14:52;20.10;99.90
10660;DHT22;5378;53.206;13.316;2023-09-19T15:17:40;20.10;99.90
10660;DHT22;5378;53.206;13.316;2023-09-19T15:20:28;19.90;99.90
10660;DHT22;5378;53.206;13.316;2023-09-19T15:23:16;19.80;99.90
10660;DHT22;5378;53.206;13.316;2023-09-19T15:26:04;19.70;99.90
10660;DHT22;5378;53.206;13.316;2023-09-19T15:28:52;19.60;99.90
10660;DHT22;5378;53.206;13.316;2023-09-19T15:31:40;19.50;99.90
10660;DHT22;5378;53.206;13.316;2023-09-19T15:34:27;19.40;99.90
10660;DHT22;5378;53.206;13.316;2023-09-19T15:37:16;19.40;99.90
10660;DHT22;5378;53.206;13.316;2023-09-19T15:40:03;19.30;99.90
10660;DHT22;5378;53.206;13.316;2023-09-19T15:42:54;19.20;99.90
10660;DHT22;5378;53.206;13.316;2023-09-19T15:45:41;19.30;99.90
10660;DHT22;5378;53.206;13.316;2023-09-19T15:48:29;19.30;99.90
10660;DHT22;5378;53.206;13.316;2023-09-19T15:51:15;19.40;99.90
10660;DHT22;5378;53.206;13.316;2023-09-19T15:54:09;19.40;99.90
10660;DHT22;5378;53.206;13.316;2023-09-19T15:56:56;19.30;99.90
10660;DHT22;5378;53.206;13.316;2023-09-19T15:59:43;19.20;99.90
10660;DHT22;5378;53.206;13.316;2023-09-19T16:02:32;19.10;99.90
10660;DHT22;5378;53.206;13.316;2023-09-19T16:05:19;19.00;99.90
10660;DHT22;5378;53.206;13.316;2023-09-19T16:08:07;18.90;99.90
10660;DHT22;5378;53.206;13.316;2023-09-19T16:10:55;18.90;99.90
10660;DHT22;5378;53.206;13.316;2023-09-19T16:13:43;18.80;99.90
10660;DHT22;5378;53.206;13.316;2023-09-19T16:16:31;18.80;99.90
10660;DHT22;5378;53.206;13.316;2023-09-19T16:19:20;18.70;99.90
10660;DHT22;5378;53.206;13.316;2023-09-19T16:22:07;18.60;99.90
10660;DHT22;5378;53.206;13.316;2023-09-19T16:24:55;18.70;99.90
10660;DHT22;5378;53.206;13.316;2023-09-19T16:27:43;18.60;99.90
10660;DHT22;5378;53.206;13.316;2023-09-19T16:30:31;18.50;99.90
10660;DHT22;5378;53.206;13.316;2023-09-19T16:33:20;18.40;99.90
10660;DHT22;5378;53.206;13.316;2023-09-19T16:36:07;18.30;99.90
10660;DHT22;5378;53.206;13.316;2023-09-19T16:38:55;18.30;99.90
10660;DHT22;5378;53.206;13.316;2023-09-19T16:41:42;18.20;99.90
10660;DHT22;5378;53.206;13.316;2023-09-19T16:44:32;18.20;99.90
10660;DHT22;5378;53.206;13.316;2023-09-19T16:47:20;18.00;99.90
10660;DHT22;5378;53.206;13.316;2023-09-19T16:50:08;18.00;99.90
10660;DHT22;5378;53.206;13.316;2023-09-19T16:52:55;17.90;99.90
10660;DHT22;5378;53.206;13.316;2023-09-19T16:55:42;17.90;99.90
10660;DHT22;5378;53.206;13.316;2023-09-19T16:58:30;17.80;99.90
10660;DHT22;5378;53.206;13.316;2023-09-19T17:01:20;17.80;99.90
10660;DHT22;5378;53.206;13.316;2023-09-19T17:04:10;17.90;99.90
10660;DHT22;5378;53.206;13.316;2023-09-19T17:06:57;17.80;99.90
10660;DHT22;5378;53.206;13.316;2023-09-19T17:09:44;17.90;99.90
10660;DHT22;5378;53.206;13.316;2023-09-19T17:12:30;17.80;99.90
10660;DHT22;5378;53.206;13.316;2023-09-19T17:15:19;17.70;99.90
10660;DHT22;5378;53.206;13.316;2023-09-19T17:18:08;17.70;99.90
10660;DHT22;5378;53.206;13.316;2023-09-19T17:20:56;17.60;99.90
10660;DHT22;5378;53.206;13.316;2023-09-19T17:23:43;17.50;99.90
10660;DHT22;5378;53.206;13.316;2023-09-19T17:26:30;17.50;99.90
10660;DHT22;5378;53.206;13.316;2023-09-19T17:29:19;17.50;99.90
10660;DHT22;5378;53.206;13.316;2023-09-19T17:32:06;17.40;99.90
10660;DHT22;5378;53.206;13.316;2023-09-19T17:34:54;17.40;99.90
10660;DHT22;5378;53.206;13.316;2023-09-19T17:37:42;17.30;99.90
10660;DHT22;5378;53.206;13.316;2023-09-19T17:40:29;17.30;99.90
10660;DHT22;5378;53.206;13.316;2023-09-19T17:43:17;17.40;99.90
10660;DHT22;5378;53.206;13.316;2023-09-19T17:46:09;17.30;99.90
10660;DHT22;5378;53.206;13.316;2023-09-19T17:48:57;17.30;99.90
10660;DHT22;5378;53.206;13.316;2023-09-19T17:51:47;17.30;99.90